Time;durP1;ratioP1;P1;durP2;ratioP2;P2;SDS_P1;SDS_P2;PMS_P1;PMS_P2;Temp;Humidity;BMP_temperature;BMP_pressure;BME280_temperature;BME280_humidity;BME280_pressure;Samples;Min_cycle;Max_cycle;Signal;HPM_P1;HPM_P2
2021/09/09 00:00:02;;;;;;;;;;;;;;;18.14;66.02;96642.44;30001;983;1879;-61
2021/09/09 00:00:33;;;;;;;;;;;;;;;18.17;66.13;96639.78;30001;983;1875;-60
2021/09/09 00:01:04;;;;;;;;;;;;;;;18.20;66.10;96635.56;30001;983;1862;-60
2021/09/09 00:01:35;;;;;;;;;;;;;;;18.18;66.05;96637.84;30001;983;1871;-60
2021/09/09 00:02:06;;;;;;;;;;;;;;;18.16;66.01;96634.66;30001;983;1880;-61
2021/09/09 00:02:37;;;;;;;;;;;;;;;18.13;66.28;96635.34;30001;983;1875;-60
2021/09/09 00:03:08;;;;;;;;;;;;;;;18.11;66.19;96637.63;30001;982;1880;-60
2021/09/09 00:03:38;;;;;;;;;;;;;;;18.13;66.36;96635.34;30001;982;1875;-60
2021/09/09 00:04:09;;;;;;;;;;;;;;;18.13;66.49;96638.09;30001;982;1880;-61
2021/09/09 00:04:40;;;;;;;;;;;;;;;18.16;66.23;96634.66;30001;982;1858;-62
2021/09/09 00:05:11;;;;;;;;;;;;;;;18.19;66.04;96639.44;30001;965;1893;-60
2021/09/09 00:05:44;;;;;;;;;;;;;;;18.18;66.14;96638.66;30001;983;1875;-61
2021/09/09 00:06:15;;;;;;;;;;;;;;;18.18;65.86;96635.09;30001;983;1879;-61
2021/09/09 00:06:45;;;;;;;;;;;;;;;18.20;65.92;96638.28;30001;986;1857;-60
2021/09/09 00:07:18;;;;;;;;;;;;;;;18.16;66.59;96634.66;30001;983;1875;-62
2021/09/09 00:07:49;;;;;;;;;;;;;;;18.16;66.44;96637.38;30001;983;1875;-60
2021/09/09 00:08:20;;;;;;;;;;;;;;;18.14;66.13;96631.44;30001;983;1879;-61
2021/09/09 00:08:51;;;;;;;;;;;;;;;18.13;66.28;96629.84;30001;983;1875;-60
2021/09/09 00:09:21;;;;;;;;;;;;;;;18.14;66.03;96637.72;30001;983;1880;-62
2021/09/09 00:09:52;;;;;;;;;;;;;;;18.14;66.26;96628.69;30001;983;1875;-61
2021/09/09 00:10:23;;;;;;;;;;;;;;;18.17;66.36;96633.50;30001;983;1862;-61
2021/09/09 00:10:54;;;;;;;;;;;;;;;18.16;66.30;96631.91;30001;982;1871;-61
2021/09/09 00:11:26;;;;;;;;;;;;;;;18.16;66.07;96631.91;30001;982;1880;-61
2021/09/09 00:11:57;;;;;;;;;;;;;;;18.18;66.51;96632.34;30001;982;1858;-62
2021/09/09 00:12:27;;;;;;;;;;;;;;;18.18;65.92;96632.34;30001;982;1876;-59
2021/09/09 00:12:58;;;;;;;;;;;;;;;18.17;66.10;96630.75;30001;982;1876;-61
2021/09/09 00:13:29;;;;;;;;;;;;;;;18.16;66.01;96634.66;30001;983;1879;-62
2021/09/09 00:14:00;;;;;;;;;;;;;;;18.14;66.07;96626.75;30001;983;1857;-61
2021/09/09 00:14:32;;;;;;;;;;;;;;;18.16;66.17;96632.69;30001;983;1875;-61
2021/09/09 00:15:03;;;;;;;;;;;;;;;18.15;66.37;96631.09;30001;976;1882;-61
2021/09/09 00:15:34;;;;;;;;;;;;;;;18.14;66.03;96628.69;30001;983;1879;-61
2021/09/09 00:16:06;;;;;;;;;;;;;;;18.15;66.30;96627.56;30001;983;1875;-60
2021/09/09 00:16:37;;;;;;;;;;;;;;;18.14;66.07;96631.44;30001;983;1880;-61
2021/09/09 00:17:08;;;;;;;;;;;;;;;18.15;66.16;96633.03;30001;983;1858;-60
2021/09/09 00:17:39;;;;;;;;;;;;;;;18.13;66.18;96630.66;30001;982;1875;-62
2021/09/09 00:18:10;;;;;;;;;;;;;;;18.12;66.41;96625.50;30001;982;1875;-62
2021/09/09 00:18:42;;;;;;;;;;;;;;;18.09;66.24;96625.03;30001;982;1880;-62
2021/09/09 00:19:12;;;;;;;;;;;;;;;18.12;66.51;96633.75;30001;982;1876;-61
2021/09/09 00:19:43;;;;;;;;;;;;;;;18.08;66.24;96639.91;30001;982;1880;-61
2021/09/09 00:20:14;;;;;;;;;;;;;;;18.06;66.50;96631.22;30001;982;1875;-61
2021/09/09 00:20:45;;;;;;;;;;;;;;;18.06;66.54;96633.97;30001;983;1862;-60
2021/09/09 00:21:16;;;;;;;;;;;;;;;18.03;66.84;96637.41;30001;983;1870;-62
2021/09/09 00:21:47;;;;;;;;;;;;;;;18.04;66.35;96627.22;30001;983;1879;-62
2021/09/09 00:22:18;;;;;;;;;;;;;;;18.05;66.70;96635.13;30001;983;1875;-60
2021/09/09 00:22:49;;;;;;;;;;;;;;;18.06;66.33;96631.22;30001;983;1879;-61
2021/09/09 00:23:20;;;;;;;;;;;;;;;18.06;66.55;96631.22;30001;983;1875;-61
2021/09/09 00:23:50;;;;;;;;;;;;;;;18.07;66.27;96632.03;30001;983;1880;-61
2021/09/09 00:24:21;;;;;;;;;;;;;;;18.06;66.39;96625.75;30001;983;1858;-60
2021/09/09 00:24:52;;;;;;;;;;;;;;;18.05;66.41;96621.41;30001;982;1875;-61
2021/09/09 00:25:23;;;;;;;;;;;;;;;18.04;66.52;96627.22;30001;982;1875;-60
2021/09/09 00:25:54;;;;;;;;;;;;;;;18.03;66.15;96626.44;30001;982;1880;-61
2021/09/09 00:26:24;;;;;;;;;;;;;;;18.03;66.72;96626.44;30001;982;1876;-61
2021/09/09 00:26:55;;;;;;;;;;;;;;;18.02;66.36;96624.84;30001;982;1862;-60
2021/09/09 00:27:26;;;;;;;;;;;;;;;18.01;66.43;96620.50;30001;982;1871;-61
2021/09/09 00:27:57;;;;;;;;;;;;;;;18.03;66.29;96637.41;30001;982;1880;-62
2021/09/09 00:28:28;;;;;;;;;;;;;;;18.05;66.47;96624.13;30001;983;1857;-61
2021/09/09 00:28:59;;;;;;;;;;;;;;;18.05;66.13;96626.88;30001;983;1875;-60
2021/09/09 00:29:30;;;;;;;;;;;;;;;18.05;66.07;96624.13;30001;983;1875;-62
2021/09/09 00:30:00;;;;;;;;;;;;;;;18.07;66.10;96618.31;30001;983;1879;-61
2021/09/09 00:30:32;;;;;;;;;;;;;;;18.08;66.39;96628.12;30001;983;1875;-61
2021/09/09 00:31:03;;;;;;;;;;;;;;;18.08;66.06;96623.44;30001;983;1880;-61
2021/09/09 00:31:33;;;;;;;;;;;;;;;18.11;66.14;96615.66;30001;983;1875;-62
2021/09/09 00:32:05;;;;;;;;;;;;;;;18.17;65.87;96617.03;30001;983;1880;-62
2021/09/09 00:32:36;;;;;;;;;;;;;;;18.22;65.96;96617.59;30001;982;1875;-61
2021/09/09 00:33:08;;;;;;;;;;;;;;;18.25;65.46;96627.06;30001;982;1880;-61
2021/09/09 00:33:39;;;;;;;;;;;;;;;18.23;65.86;96623.87;30001;982;1858;-61
2021/09/09 00:34:10;;;;;;;;;;;;;;;18.22;65.81;96625.03;30001;982;1876;-63
2021/09/09 00:34:41;;;;;;;;;;;;;;;18.22;65.88;96622.28;30001;982;1876;-62
2021/09/09 00:35:12;;;;;;;;;;;;;;;18.27;65.62;96619.28;30001;982;1880;-62
2021/09/09 00:35:43;;;;;;;;;;;;;;;18.26;65.73;96623.19;30001;982;1876;-62
2021/09/09 00:36:14;;;;;;;;;;;;;;;18.23;65.53;96619.19;30001;983;1879;-60
2021/09/09 00:36:45;;;;;;;;;;;;;;;18.21;65.56;96626.16;30001;983;1875;-61
2021/09/09 00:37:16;;;;;;;;;;;;;;;18.17;65.55;96619.75;30001;983;1879;-61
2021/09/09 00:37:47;;;;;;;;;;;;;;;18.16;66.19;96629.94;30001;983;1875;-61
2021/09/09 00:38:17;;;;;;;;;;;;;;;18.16;66.08;96623.66;30001;983;1862;-61
2021/09/09 00:38:48;;;;;;;;;;;;;;;18.18;66.00;96626.84;30001;983;1871;-64
2021/09/09 00:39:19;;;;;;;;;;;;;;;18.20;65.58;96624.56;30001;983;1880;-63
2021/09/09 00:39:50;;;;;;;;;;;;;;;18.20;65.67;96630.06;30001;983;1858;-62
2021/09/09 00:40:21;;;;;;;;;;;;;;;18.18;65.66;96626.84;30001;958;1899;-62
2021/09/09 00:40:52;;;;;;;;;;;;;;;18.16;65.93;96623.66;30001;982;1876;-61
2021/09/09 00:41:23;;;;;;;;;;;;;;;18.14;65.81;96624.00;30001;982;1880;-62
2021/09/09 00:41:54;;;;;;;;;;;;;;;18.16;66.07;96612.69;30001;982;1876;-62
2021/09/09 00:42:28;;;;;;;;;;;;;;;18.17;65.92;96619.75;30001;982;1880;-61
2021/09/09 00:42:58;;;;;;;;;;;;;;;18.16;65.65;96623.66;30001;982;1826;-60
2021/09/09 00:43:29;;;;;;;;;;;;;;;18.13;66.03;96625.16;30001;983;1879;-61
2021/09/09 00:44:01;;;;;;;;;;;;;;;18.13;65.77;96625.16;30001;983;1791;-61
2021/09/09 00:44:33;;;;;;;;;;;;;;;18.12;66.00;96622.75;30001;983;1879;-61
2021/09/09 00:45:04;;;;;;;;;;;;;;;18.09;65.75;96613.25;30001;983;1857;-61
2021/09/09 00:45:35;;;;;;;;;;;;;;;18.08;65.93;96620.69;30001;983;1875;-63
2021/09/09 00:46:06;;;;;;;;;;;;;;;18.12;66.17;96622.75;30001;983;1875;-60
2021/09/09 00:46:37;;;;;;;;;;;;;;;18.13;66.10;96618.88;30001;983;1880;-62
2021/09/09 00:47:09;;;;;;;;;;;;;;;18.13;66.18;96619.66;30001;983;1875;-62
2021/09/09 00:47:40;;;;;;;;;;;;;;;18.13;66.04;96618.88;30001;982;1862;-62
2021/09/09 00:48:11;;;;;;;;;;;;;;;18.13;66.20;96618.88;30001;982;1871;-60
2021/09/09 00:48:42;;;;;;;;;;;;;;;18.08;66.38;96617.97;30001;982;1880;-61
2021/09/09 00:49:13;;;;;;;;;;;;;;;18.05;66.39;96613.16;30001;982;1876;-61
2021/09/09 00:49:44;;;;;;;;;;;;;;;18.03;66.00;96609.97;30001;982;1880;-62
2021/09/09 00:50:15;;;;;;;;;;;;;;;18.05;66.26;96615.91;30001;983;1875;-62
2021/09/09 00:50:46;;;;;;;;;;;;;;;18.04;66.32;96611.56;30001;983;1879;-67
2021/09/09 00:51:18;;;;;;;;;;;;;;;18.03;66.28;96612.69;30001;983;1857;-69
2021/09/09 00:51:49;;;;;;;;;;;;;;;18.03;66.34;96609.97;30001;983;1875;-62
2021/09/09 00:52:20;;;;;;;;;;;;;;;18.02;66.21;96613.84;30001;983;1857;-61
2021/09/09 00:52:51;;;;;;;;;;;;;;;18.02;66.28;96616.59;30001;983;1875;-63
2021/09/09 00:53:22;;;;;;;;;;;;;;;17.99;66.50;96619.25;30001;983;1875;-66
2021/09/09 00:53:53;;;;;;;;;;;;;;;18.00;66.71;96615.38;30001;983;1880;-61
2021/09/09 00:54:24;;;;;;;;;;;;;;;18.01;66.35;96615.03;30001;982;1875;-60
2021/09/09 00:54:55;;;;;;;;;;;;;;;17.98;66.57;96623.94;30001;977;1897;-63
2021/09/09 00:55:27;;;;;;;;;;;;;;;17.96;66.68;96615.25;30001;982;1858;-64
2021/09/09 00:55:58;;;;;;;;;;;;;;;17.96;66.68;96615.25;30001;982;1876;-61
2021/09/09 00:56:29;;;;;;;;;;;;;;;17.95;66.53;96618.34;30001;982;1876;-66
2021/09/09 00:57:01;;;;;;;;;;;;;;;17.96;66.66;96615.25;30001;982;1880;-67
2021/09/09 00:57:32;;;;;;;;;;;;;;;17.95;66.68;96619.16;30001;983;1875;-62
2021/09/09 00:58:05;;;;;;;;;;;;;;;17.95;66.53;96613.66;30001;983;1879;-68
2021/09/09 00:58:36;;;;;;;;;;;;;;;17.97;66.64;96627.84;30001;983;1875;-61
2021/09/09 00:59:07;;;;;;;;;;;;;;;17.97;66.24;96622.34;30001;983;1862;-60
2021/09/09 00:59:38;;;;;;;;;;;;;;;17.97;66.40;96624.28;30001;983;1871;-61
2021/09/09 01:00:10;;;;;;;;;;;;;;;17.98;66.72;96623.16;30001;983;1880;-60
2021/09/09 01:00:41;;;;;;;;;;;;;;;17.93;66.81;96626.94;30001;983;1875;-61
2021/09/09 01:01:15;;;;;;;;;;;;;;;17.90;66.84;96622.13;30001;983;1880;-68
2021/09/09 01:01:46;;;;;;;;;;;;;;;17.90;66.58;96627.62;30001;982;1875;-63
2021/09/09 01:02:17;;;;;;;;;;;;;;;17.91;66.93;96623.72;30001;982;1880;-60
2021/09/09 01:02:47;;;;;;;;;;;;;;;17.90;66.67;96615.84;30001;982;1876;-62
2021/09/09 01:03:18;;;;;;;;;;;;;;;17.88;66.67;96629.12;30001;982;1880;-61
2021/09/09 01:03:50;;;;;;;;;;;;;;;17.89;66.72;96625.22;30001;982;1876;-62
2021/09/09 01:04:21;;;;;;;;;;;;;;;17.92;66.83;96619.84;30001;982;1863;-60
2021/09/09 01:04:53;;;;;;;;;;;;;;;17.93;66.65;96626.13;30001;982;1871;-61
2021/09/09 01:05:24;;;;;;;;;;;;;;;17.93;66.83;96621.44;30001;983;1879;-60
2021/09/09 01:05:55;;;;;;;;;;;;;;;17.91;66.61;96621.00;30001;983;1857;-60
2021/09/09 01:06:26;;;;;;;;;;;;;;;17.90;66.54;96616.66;30001;983;1875;-63
2021/09/09 01:06:58;;;;;;;;;;;;;;;17.92;66.70;96619.84;30001;983;1875;-67
2021/09/09 01:07:29;;;;;;;;;;;;;;;17.92;66.75;96619.03;30001;983;1879;-60
2021/09/09 01:08:00;;;;;;;;;;;;;;;17.91;66.61;96611.97;30001;983;1875;-61
2021/09/09 01:08:31;;;;;;;;;;;;;;;17.89;66.50;96620.53;30001;983;1880;-61
2021/09/09 01:09:02;;;;;;;;;;;;;;;17.89;66.65;96620.53;30001;983;1858;-61
2021/09/09 01:09:33;;;;;;;;;;;;;;;17.90;66.83;96622.13;30001;982;1875;-61
2021/09/09 01:10:04;;;;;;;;;;;;;;;17.88;66.78;96627.16;30001;982;1875;-63
2021/09/09 01:10:36;;;;;;;;;;;;;;;17.88;66.91;96624.44;30001;982;1880;-60
2021/09/09 01:11:07;;;;;;;;;;;;;;;17.86;66.98;96621.22;30001;982;1875;-66
2021/09/09 01:11:38;;;;;;;;;;;;;;;17.86;66.84;96621.22;30001;982;1880;-61
2021/09/09 01:12:09;;;;;;;;;;;;;;;17.85;67.09;96625.13;30001;986;1866;-63
2021/09/09 01:12:39;;;;;;;;;;;;;;;17.85;67.15;96616.09;30001;983;1879;-61
2021/09/09 01:13:11;;;;;;;;;;;;;;;17.82;67.45;96620.31;30001;983;1875;-61
2021/09/09 01:13:48;;;;;;;;;;;;;;;17.81;67.22;96618.72;30001;983;1862;-65
2021/09/09 01:14:20;;;;;;;;;;;;;;;17.78;67.39;96619.41;30001;983;1871;-68
2021/09/09 01:14:51;;;;;;;;;;;;;;;17.80;67.28;96621.81;30001;983;1879;-60
2021/09/09 01:15:22;;;;;;;;;;;;;;;17.78;67.16;96622.16;30001;983;1875;-63
2021/09/09 01:15:53;;;;;;;;;;;;;;;17.79;67.26;96626.50;30001;983;1862;-63
2021/09/09 01:16:26;;;;;;;;;;;;;;;17.80;67.62;96633.56;30001;983;1871;-66
2021/09/09 01:16:58;;;;;;;;;;;;;;;17.80;67.26;96621.81;30001;982;1880;-64
2021/09/09 01:17:29;;;;;;;;;;;;;;;17.78;67.36;96624.09;30001;982;1858;-63
2021/09/09 01:18:05;;;;;;;;;;;;;;;17.76;67.50;96618.94;30001;982;1876;-66
2021/09/09 01:18:36;;;;;;;;;;;;;;;17.72;67.45;96615.28;30001;982;1876;-63
2021/09/09 01:19:09;;;;;;;;;;;;;;;17.70;67.67;96618.38;30001;982;1841;-61
2021/09/09 01:19:40;;;;;;;;;;;;;;;17.69;67.77;96619.53;30001;983;1875;-61
2021/09/09 01:20:11;;;;;;;;;;;;;;;17.67;67.59;96621.03;30001;983;1879;-62
2021/09/09 01:20:42;;;;;;;;;;;;;;;17.66;67.56;96616.69;30001;983;1875;-60
2021/09/09 01:21:14;;;;;;;;;;;;;;;17.64;67.66;96613.47;30001;983;1862;-63
2021/09/09 01:21:45;;;;;;;;;;;;;;;17.64;67.79;96621.69;30001;983;1871;-60
2021/09/09 01:22:16;;;;;;;;;;;;;;;17.64;67.81;96613.47;30001;983;1879;-60
2021/09/09 01:22:47;;;;;;;;;;;;;;;17.66;67.71;96611.22;30001;983;1875;-66
2021/09/09 01:23:19;;;;;;;;;;;;;;;17.66;67.64;96616.69;30001;983;1880;-60
2021/09/09 01:23:51;;;;;;;;;;;;;;;17.64;67.91;96607.97;30001;983;1875;-60
2021/09/09 01:24:24;;;;;;;;;;;;;;;17.66;67.47;96606.53;30001;982;1880;-61
2021/09/09 01:24:54;;;;;;;;;;;;;;;17.68;67.54;96608.91;30001;982;1875;-61
2021/09/09 01:25:25;;;;;;;;;;;;;;;17.72;67.37;96604.31;30001;982;1880;-65
2021/09/09 01:25:56;;;;;;;;;;;;;;;17.75;67.38;96603.63;30001;982;1876;-60
2021/09/09 01:26:29;;;;;;;;;;;;;;;17.76;67.27;96607.97;30001;982;1862;-65
2021/09/09 01:27:02;;;;;;;;;;;;;;;17.80;66.91;96603.41;30001;983;1870;-64
2021/09/09 01:27:32;;;;;;;;;;;;;;;17.79;67.19;96610.03;30001;983;1879;-61
2021/09/09 01:28:04;;;;;;;;;;;;;;;17.77;67.08;96612.31;30001;983;1875;-60
2021/09/09 01:28:34;;;;;;;;;;;;;;;17.75;67.20;96606.38;30001;983;1879;-66
2021/09/09 01:29:06;;;;;;;;;;;;;;;17.72;67.32;96604.31;30001;983;1875;-60
2021/09/09 01:29:38;;;;;;;;;;;;;;;17.70;67.46;96601.91;30001;983;1862;-61
2021/09/09 01:30:09;;;;;;;;;;;;;;;17.71;67.31;96602.72;30001;983;1871;-60
2021/09/09 01:30:40;;;;;;;;;;;;;;;17.73;67.36;96605.91;30001;983;1880;-64
2021/09/09 01:31:13;;;;;;;;;;;;;;;17.73;67.37;96601.22;30001;983;1875;-66
2021/09/09 01:31:44;;;;;;;;;;;;;;;17.73;67.32;96600.44;30001;983;1862;-60
2021/09/09 01:32:15;;;;;;;;;;;;;;;17.72;67.12;96598.81;30001;982;1871;-60
2021/09/09 01:32:46;;;;;;;;;;;;;;;17.72;67.18;96598.81;30001;982;1862;-61
2021/09/09 01:33:17;;;;;;;;;;;;;;;17.73;67.42;96603.16;30001;982;1871;-61
2021/09/09 01:33:53;;;;;;;;;;;;;;;17.73;67.12;96597.69;30001;982;1863;-61
2021/09/09 01:34:24;;;;;;;;;;;;;;;17.74;67.32;96599.28;30001;982;1871;-69
2021/09/09 01:34:55;;;;;;;;;;;;;;;17.75;67.10;96590.72;30001;983;1879;-61
2021/09/09 01:35:25;;;;;;;;;;;;;;;17.76;67.26;96599.75;30001;983;1875;-60
2021/09/09 01:35:56;;;;;;;;;;;;;;;17.79;67.43;96584.53;30001;983;1879;-66
2021/09/09 01:36:27;;;;;;;;;;;;;;;17.78;67.05;96591.97;30001;983;1875;-67
2021/09/09 01:36:58;;;;;;;;;;;;;;;17.78;67.30;96597.44;30001;983;1879;-68
2021/09/09 01:37:29;;;;;;;;;;;;;;;17.77;67.43;96611.50;30001;983;1858;-61
2021/09/09 01:38:00;;;;;;;;;;;;;;;17.77;67.31;96592.31;30001;983;1858;-63
2021/09/09 01:38:31;;;;;;;;;;;;;;;17.77;67.12;96603.28;30001;983;1875;-63
2021/09/09 01:39:03;;;;;;;;;;;;;;;17.76;67.04;96599.75;30001;983;1880;-65
2021/09/09 01:39:39;;;;;;;;;;;;;;;17.74;67.09;96602.03;30001;982;1875;-62
2021/09/09 01:40:10;;;;;;;;;;;;;;;17.75;67.01;96609.13;30001;982;1880;-64
2021/09/09 01:40:41;;;;;;;;;;;;;;;17.73;66.96;96603.97;30001;982;1858;-64
2021/09/09 01:41:12;;;;;;;;;;;;;;;17.72;67.13;96599.63;30001;982;1875;-67
2021/09/09 01:41:43;;;;;;;;;;;;;;;17.72;67.02;96610.59;30001;982;1876;-62
2021/09/09 01:42:13;;;;;;;;;;;;;;;17.71;67.43;96603.50;30001;983;1879;-66
2021/09/09 01:42:44;;;;;;;;;;;;;;;17.76;67.47;96599.75;30001;983;1857;-62
2021/09/09 01:43:15;;;;;;;;;;;;;;;17.76;67.14;96599.75;30001;983;1875;-60
2021/09/09 01:43:46;;;;;;;;;;;;;;;17.76;67.33;96602.47;30001;983;1875;-67
2021/09/09 01:44:17;;;;;;;;;;;;;;;17.72;67.40;96601.56;30001;983;1879;-62
2021/09/09 01:44:48;;;;;;;;;;;;;;;17.72;67.46;96596.88;30001;983;1875;-61
2021/09/09 01:45:20;;;;;;;;;;;;;;;17.72;67.23;96605.12;30001;983;1879;-61
2021/09/09 01:45:53;;;;;;;;;;;;;;;17.71;67.34;96597.22;30001;983;1875;-60
2021/09/09 01:46:24;;;;;;;;;;;;;;;17.70;67.36;96593.69;30001;982;1880;-64
2021/09/09 01:46:55;;;;;;;;;;;;;;;17.69;67.86;96599.50;30001;982;1858;-62
2021/09/09 01:47:26;;;;;;;;;;;;;;;17.69;67.42;96599.50;30001;982;1876;-67
2021/09/09 01:48:00;;;;;;;;;;;;;;;17.68;67.47;96592.44;30001;982;1876;-66
2021/09/09 01:48:30;;;;;;;;;;;;;;;17.67;67.30;96596.34;30001;982;1880;-64
2021/09/09 01:49:02;;;;;;;;;;;;;;;17.66;67.57;96600.25;30001;982;1876;-65
2021/09/09 01:49:33;;;;;;;;;;;;;;;17.65;67.44;96598.62;30001;983;1879;-61
2021/09/09 01:50:05;;;;;;;;;;;;;;;17.67;67.66;96596.34;30001;983;1875;-60
2021/09/09 01:50:36;;;;;;;;;;;;;;;17.68;67.62;96598.72;30001;983;1879;-63
2021/09/09 01:51:07;;;;;;;;;;;;;;;17.68;67.70;96603.41;30001;983;1875;-71
2021/09/09 01:51:38;;;;;;;;;;;;;;;17.68;67.63;96592.44;30001;983;1879;-63
2021/09/09 01:52:09;;;;;;;;;;;;;;;17.67;67.54;96602.59;30001;983;1858;-61
2021/09/09 01:52:39;;;;;;;;;;;;;;;17.67;67.62;96601.84;30001;983;1875;-62
2021/09/09 01:53:10;;;;;;;;;;;;;;;17.66;67.66;96600.25;30001;983;1858;-64
2021/09/09 01:53:41;;;;;;;;;;;;;;;17.67;67.59;96601.84;30001;983;1875;-61
2021/09/09 01:54:12;;;;;;;;;;;;;;;17.67;67.41;96601.84;30001;982;1875;-62
2021/09/09 01:54:43;;;;;;;;;;;;;;;17.66;67.73;96590.06;30001;982;1880;-63
2021/09/09 01:55:14;;;;;;;;;;;;;;;17.68;67.35;96603.41;30001;982;1876;-60
2021/09/09 01:55:45;;;;;;;;;;;;;;;17.67;67.43;96593.59;30001;982;1880;-62
2021/09/09 01:56:16;;;;;;;;;;;;;;;17.66;67.50;96600.25;30001;986;1866;-63
2021/09/09 01:56:47;;;;;;;;;;;;;;;17.64;67.46;96597.81;30001;982;1863;-61
2021/09/09 01:57:17;;;;;;;;;;;;;;;17.65;67.55;96595.88;30001;983;1871;-65
2021/09/09 01:57:48;;;;;;;;;;;;;;;17.64;67.46;96597.00;30001;983;1862;-61
2021/09/09 01:58:21;;;;;;;;;;;;;;;17.63;67.38;96596.22;30001;983;1871;-60
2021/09/09 01:58:51;;;;;;;;;;;;;;;17.62;67.55;96599.28;30001;983;1862;-61
2021/09/09 01:59:22;;;;;;;;;;;;;;;17.63;67.73;96596.22;30001;983;1871;-61
2021/09/09 01:59:56;;;;;;;;;;;;;;;17.63;67.90;96589.91;30001;983;1880;-63
2021/09/09 02:00:27;;;;;;;;;;;;;;;17.64;67.83;96591.53;30001;983;1875;-60
2021/09/09 02:00:58;;;;;;;;;;;;;;;17.63;67.62;96596.22;30001;983;1880;-60
2021/09/09 02:01:29;;;;;;;;;;;;;;;17.61;67.69;96603.19;30001;982;1875;-62
2021/09/09 02:02:00;;;;;;;;;;;;;;;17.59;67.92;96594.50;30001;982;1880;-62
2021/09/09 02:02:31;;;;;;;;;;;;;;;17.57;67.74;96596.78;30001;982;1876;-61
2021/09/09 02:03:02;;;;;;;;;;;;;;;17.55;67.70;96590.84;30001;982;1880;-63
2021/09/09 02:03:32;;;;;;;;;;;;;;;17.54;67.83;96592.78;30001;982;1858;-61
2021/09/09 02:04:04;;;;;;;;;;;;;;;17.54;68.01;96587.28;30001;982;1876;-64
2021/09/09 02:04:34;;;;;;;;;;;;;;;17.54;67.79;96590.03;30001;982;1875;-61
2021/09/09 02:05:06;;;;;;;;;;;;;;;17.57;67.98;96591.28;30001;983;1879;-61
2021/09/09 02:05:36;;;;;;;;;;;;;;;17.61;67.90;96583.97;30001;983;1875;-63
2021/09/09 02:06:07;;;;;;;;;;;;;;;17.61;67.70;96594.94;30001;983;1879;-63
2021/09/09 02:06:38;;;;;;;;;;;;;;;17.59;67.47;96589.81;30001;983;1875;-60
2021/09/09 02:07:10;;;;;;;;;;;;;;;17.58;67.66;96590.16;30001;983;1880;-65
2021/09/09 02:07:40;;;;;;;;;;;;;;;17.59;67.77;96594.50;30001;983;1875;-67
2021/09/09 02:08:11;;;;;;;;;;;;;;;17.61;67.54;96592.22;30001;983;1862;-71
2021/09/09 02:08:43;;;;;;;;;;;;;;;17.62;67.41;96588.31;30001;983;1871;-61
2021/09/09 02:09:14;;;;;;;;;;;;;;;17.61;67.83;96592.22;30001;982;1880;-65
2021/09/09 02:09:45;;;;;;;;;;;;;;;17.60;67.71;96585.13;30001;982;1876;-61
2021/09/09 02:10:19;;;;;;;;;;;;;;;17.60;67.61;96585.91;30001;982;1880;-60
2021/09/09 02:10:51;;;;;;;;;;;;;;;17.59;67.59;96591.75;30001;982;1876;-63
2021/09/09 02:11:25;;;;;;;;;;;;;;;17.57;67.59;96586.59;30001;982;1863;-68
2021/09/09 02:11:56;;;;;;;;;;;;;;;17.55;67.74;96594.37;30001;982;1871;-62
2021/09/09 02:12:27;;;;;;;;;;;;;;;17.58;68.01;96587.41;30001;958;1812;-61
2021/09/09 02:12:58;;;;;;;;;;;;;;;17.65;67.41;96593.16;30001;983;1875;-61
2021/09/09 02:13:29;;;;;;;;;;;;;;;17.62;67.52;96591.06;30001;983;1862;-64
2021/09/09 02:14:00;;;;;;;;;;;;;;;17.60;67.64;96591.41;30001;983;1776;-61
2021/09/09 02:14:31;;;;;;;;;;;;;;;17.58;67.76;96592.91;30001;983;1879;-63
2021/09/09 02:15:03;;;;;;;;;;;;;;;17.57;67.68;96591.28;30001;983;1875;-60
2021/09/09 02:15:34;;;;;;;;;;;;;;;17.59;67.51;96589.00;30001;983;1862;-63
2021/09/09 02:16:05;;;;;;;;;;;;;;;17.62;67.67;96597.34;30001;983;1871;-60
2021/09/09 02:16:36;;;;;;;;;;;;;;;17.61;67.77;96593.00;30001;982;1880;-61
2021/09/09 02:17:07;;;;;;;;;;;;;;;17.60;67.54;96596.09;30001;982;1875;-61
2021/09/09 02:17:38;;;;;;;;;;;;;;;17.58;67.91;96598.38;30001;982;1880;-63
2021/09/09 02:18:09;;;;;;;;;;;;;;;17.58;67.48;96598.38;30001;982;1875;-61
2021/09/09 02:18:40;;;;;;;;;;;;;;;17.56;67.76;96590.50;30001;982;1880;-64
2021/09/09 02:19:12;;;;;;;;;;;;;;;17.58;67.67;96592.91;30001;983;1875;-68
2021/09/09 02:19:42;;;;;;;;;;;;;;;17.55;68.06;96591.63;30001;983;1879;-61
2021/09/09 02:20:14;;;;;;;;;;;;;;;17.56;67.95;96595.19;30001;983;1857;-61
2021/09/09 02:20:44;;;;;;;;;;;;;;;17.54;68.22;96591.97;30001;983;1875;-62
2021/09/09 02:21:16;;;;;;;;;;;;;;;17.54;67.79;96584.56;30001;983;1875;-61
2021/09/09 02:21:47;;;;;;;;;;;;;;;17.54;68.21;96590.03;30001;983;1879;-64
2021/09/09 02:22:18;;;;;;;;;;;;;;;17.53;68.00;96584.91;30001;983;1875;-61
2021/09/09 02:22:49;;;;;;;;;;;;;;;17.52;68.07;96588.78;30001;983;1880;-63
2021/09/09 02:23:20;;;;;;;;;;;;;;;17.56;67.75;96589.69;30001;983;1858;-61
2021/09/09 02:23:50;;;;;;;;;;;;;;;17.54;68.05;96586.50;30001;983;1875;-65
2021/09/09 02:24:22;;;;;;;;;;;;;;;17.54;67.89;96589.25;30001;982;1875;-60
2021/09/09 02:24:53;;;;;;;;;;;;;;;17.52;68.08;96583.28;30001;982;1880;-60
2021/09/09 02:25:24;;;;;;;;;;;;;;;17.51;67.95;96587.19;30001;982;1876;-64
2021/09/09 02:25:57;;;;;;;;;;;;;;;17.50;68.21;96591.06;30001;982;1880;-60
2021/09/09 02:26:27;;;;;;;;;;;;;;;17.48;68.20;96587.88;30001;983;1875;-61
2021/09/09 02:26:58;;;;;;;;;;;;;;;17.47;68.46;96589.00;30001;983;1879;-62
2021/09/09 02:27:29;;;;;;;;;;;;;;;17.47;68.17;96587.06;30001;983;1875;-61
2021/09/09 02:28:00;;;;;;;;;;;;;;;17.47;68.57;96591.75;30001;983;1837;-61
2021/09/09 02:28:31;;;;;;;;;;;;;;;17.47;68.08;96594.50;30001;983;1857;-60
2021/09/09 02:29:02;;;;;;;;;;;;;;;17.47;68.49;96589.00;30001;983;1875;-61
2021/09/09 02:29:32;;;;;;;;;;;;;;;17.47;68.30;96595.28;30001;983;1875;-61
2021/09/09 02:30:04;;;;;;;;;;;;;;;17.46;68.45;96595.63;30001;983;1880;-60
2021/09/09 02:30:35;;;;;;;;;;;;;;;17.49;68.54;96589.47;30001;983;1875;-64
2021/09/09 02:31:06;;;;;;;;;;;;;;;17.48;68.49;96587.88;30001;983;1880;-66
2021/09/09 02:31:36;;;;;;;;;;;;;;;17.46;68.46;96595.63;30001;982;1875;-61
2021/09/09 02:32:08;;;;;;;;;;;;;;;17.45;68.27;96596.78;30001;982;1862;-61
2021/09/09 02:32:39;;;;;;;;;;;;;;;17.43;68.20;96597.94;30001;982;1871;-60
2021/09/09 02:33:10;;;;;;;;;;;;;;;17.41;68.42;96591.97;30001;982;1880;-60
2021/09/09 02:33:41;;;;;;;;;;;;;;;17.40;68.74;96593.13;30001;982;1858;-59
2021/09/09 02:34:12;;;;;;;;;;;;;;;17.39;68.37;96594.25;30001;983;1875;-62
2021/09/09 02:34:42;;;;;;;;;;;;;;;17.39;68.44;96590.72;30001;983;1875;-60
2021/09/09 02:35:13;;;;;;;;;;;;;;;17.44;68.39;96593.25;30001;983;1879;-70
2021/09/09 02:35:44;;;;;;;;;;;;;;;17.47;68.42;96591.75;30001;983;1875;-61
2021/09/09 02:36:15;;;;;;;;;;;;;;;17.47;68.57;96591.75;30001;983;1879;-61
2021/09/09 02:36:46;;;;;;;;;;;;;;;17.48;68.44;96593.34;30001;983;1875;-59
2021/09/09 02:37:17;;;;;;;;;;;;;;;17.49;68.60;96589.47;30001;983;1879;-66
2021/09/09 02:37:48;;;;;;;;;;;;;;;17.53;68.06;96584.91;30001;983;1875;-71
2021/09/09 02:38:19;;;;;;;;;;;;;;;17.55;67.99;96593.59;30001;983;1880;-60
2021/09/09 02:38:50;;;;;;;;;;;;;;;17.58;68.02;96585.47;30001;983;1858;-60
2021/09/09 02:39:20;;;;;;;;;;;;;;;17.58;68.14;96587.41;30001;982;1875;-60
2021/09/09 02:39:51;;;;;;;;;;;;;;;17.56;67.87;96586.94;30001;982;1875;-60
2021/09/09 02:40:22;;;;;;;;;;;;;;;17.54;67.89;96589.25;30001;982;1880;-61
2021/09/09 02:40:58;;;;;;;;;;;;;;;17.53;67.99;96590.38;30001;982;1876;-60
2021/09/09 02:41:28;;;;;;;;;;;;;;;17.54;68.15;96586.50;30001;982;1880;-60
2021/09/09 02:41:59;;;;;;;;;;;;;;;17.54;68.30;96587.28;30001;986;1857;-60
2021/09/09 02:42:32;;;;;;;;;;;;;;;17.52;68.04;96589.59;30001;983;1875;-61
2021/09/09 02:43:02;;;;;;;;;;;;;;;17.55;68.06;96590.84;30001;983;1875;-59
2021/09/09 02:43:38;;;;;;;;;;;;;;;17.53;68.07;96590.38;30001;975;1870;-66
2021/09/09 02:44:12;;;;;;;;;;;;;;;17.52;68.08;96586.84;30001;983;1871;-61
2021/09/09 02:44:42;;;;;;;;;;;;;;;17.53;67.97;96582.16;30001;983;1879;-62
2021/09/09 02:45:13;;;;;;;;;;;;;;;17.52;68.10;96588.78;30001;983;1875;-62
2021/09/09 02:45:44;;;;;;;;;;;;;;;17.50;68.43;96585.59;30001;983;1880;-63
2021/09/09 02:46:15;;;;;;;;;;;;;;;17.49;68.29;96592.22;30001;983;1875;-67
2021/09/09 02:46:46;;;;;;;;;;;;;;;17.51;68.34;96587.97;30001;982;1880;-61